Main page
METAR-TAF:

Airports :

Mexicali, Mexico

General Rodolfo Sánchez Taboada International Airport

latitude: 32-37-50N, longitude: 115-14-30W, elevation: 22 m

Current weather observation

The report was made 1 hour and 13 minutes ago, at 21:50 UTC
Wind 9 kt from the Northwest
Temperature 22°C
Humidity 15%
Pressure 1024 hPa
Visibility: 16.1 km
Clear sky

METAR: MMML 062150Z 32009KT 10SM SKC 22/M06 A3024

Time: 17:03 (23:03 UTC)

Forecast

The report was made 6 hours and 17 minutes ago, at 16:46 UTC
Forecast valid from 06 at 18 UTC to 07 at 18 UTC
Wind 10 kt from the North
Visibility: 10 km
Clear sky
From 07 at 0300 UTC
Wind 8 kt from the North/Northwest
Visibility: 10 km
Clear sky
From 07 at 1600 UTC
Wind 10 kt from the North/Northeast
Visibility: 10 km
Clear sky

TAF: MMML 061646Z 0618/0718 36010KT P6SM SKC FM070300 34008KT P6SM SKC FM071600 02010KT P6SM SKC

METAR-TAF

Weather observations and forecasts of more than 4000 airports (METAR and TAF reports).

The available stations are represented by yellow and red dots on the map.

Hover mouse over dot to see the name of the station.

Then click to see weather observations and forecasts.

To change the map : click on the green buttons with a black cross to zoom in, on the green button with a dash to zoom out, or on the green arrows for adjacent maps.


METAR-TAF: